createdAt,value
2023-02-19T00:00:22.186Z,5.93
2023-02-19T00:02:49.911Z,5.13
2023-02-19T00:05:18.786Z,4.40
2023-02-19T00:07:55.248Z,5.40
2023-02-19T00:10:24.514Z,5.32
2023-02-19T00:12:56.256Z,4.30
2023-02-19T00:15:27.065Z,3.95
2023-02-19T00:17:57.040Z,6.22
2023-02-19T00:20:24.112Z,5.03
2023-02-19T00:23:04.027Z,4.88
2023-02-19T00:25:32.459Z,5.10
2023-02-19T00:28:00.137Z,5.13
2023-02-19T00:30:27.051Z,4.53
2023-02-19T00:32:55.464Z,5.32
2023-02-19T00:35:40.753Z,5.70
2023-02-19T00:38:08.364Z,5.88
2023-02-19T00:40:35.362Z,5.22
2023-02-19T00:43:03.767Z,7.05
2023-02-19T00:45:30.766Z,6.38
2023-02-19T00:48:05.506Z,8.55
2023-02-19T00:50:35.647Z,7.93
2023-02-19T00:53:02.942Z,7.88
2023-02-19T00:55:30.953Z,7.88
2023-02-19T00:57:59.857Z,8.57
2023-02-19T01:00:26.814Z,9.75
2023-02-19T01:02:53.682Z,8.85
2023-02-19T01:05:23.030Z,8.40
2023-02-19T01:07:52.286Z,6.68
2023-02-19T01:10:21.395Z,8.35
2023-02-19T01:12:48.112Z,7.75
2023-02-19T01:15:15.953Z,7.40
2023-02-19T01:17:44.420Z,6.70
2023-02-19T01:20:11.749Z,6.22
2023-02-19T01:22:38.632Z,6.25
2023-02-19T01:25:05.936Z,5.55
2023-02-19T01:27:33.131Z,6.10
2023-02-19T01:30:00.427Z,5.65
2023-02-19T01:32:32.249Z,5.03
2023-02-19T01:35:00.121Z,5.00
2023-02-19T01:37:27.454Z,5.38
2023-02-19T01:39:54.321Z,5.00
2023-02-19T01:42:21.043Z,4.50
2023-02-19T01:44:47.903Z,4.78
2023-02-19T01:47:17.891Z,5.22
2023-02-19T01:49:56.184Z,3.67
2023-02-19T01:52:34.573Z,4.75
2023-02-19T01:55:04.800Z,5.85
2023-02-19T01:57:38.851Z,4.97
2023-02-19T02:00:10.132Z,4.65
2023-02-19T02:02:38.575Z,5.22
2023-02-19T02:05:11.046Z,5.20
2023-02-19T02:07:56.506Z,5.10
2023-02-19T02:10:24.472Z,5.85
2023-02-19T02:12:57.406Z,5.38
2023-02-19T02:15:29.984Z,6.03
2023-02-19T02:18:14.237Z,5.80
2023-02-19T02:21:15.182Z,5.43
2023-02-19T02:24:14.248Z,6.03
2023-02-19T02:27:07.277Z,5.03
2023-02-19T02:30:03.307Z,6.43
2023-02-19T02:32:58.725Z,5.30
2023-02-19T02:35:31.261Z,5.00
2023-02-19T02:38:07.502Z,4.63
2023-02-19T02:40:44.553Z,5.30
2023-02-19T02:43:13.348Z,4.78
2023-02-19T02:45:46.354Z,4.85
2023-02-19T02:48:35.679Z,5.65
2023-02-19T02:51:31.446Z,4.85
2023-02-19T02:54:31.471Z,4.93
2023-02-19T02:57:01.326Z,5.20
2023-02-19T02:59:36.600Z,4.30
2023-02-19T03:02:11.382Z,4.15
2023-02-19T03:05:17.123Z,4.05
2023-02-19T03:08:16.483Z,3.72
2023-02-19T03:11:22.520Z,6.15
2023-02-19T03:14:13.768Z,4.20
2023-02-19T03:17:04.048Z,5.03
2023-02-19T03:19:35.458Z,5.13
2023-02-19T03:22:27.644Z,4.68
2023-02-19T03:25:27.070Z,6.43
2023-02-19T03:27:58.269Z,5.70
2023-02-19T03:30:30.874Z,6.50
2023-02-19T03:33:09.239Z,4.90
2023-02-19T03:35:44.714Z,5.32
2023-02-19T03:38:19.724Z,4.50
2023-02-19T03:40:54.426Z,4.18
2023-02-19T03:43:44.876Z,3.88
2023-02-19T03:46:23.834Z,3.35
2023-02-19T03:48:59.451Z,3.22
2023-02-19T03:51:54.294Z,2.85
2023-02-19T03:54:38.630Z,3.50
2023-02-19T03:57:15.013Z,3.00
2023-02-19T04:00:10.058Z,3.65
2023-02-19T04:05:51.919Z,3.75
2023-02-19T04:08:23.169Z,4.53
2023-02-19T04:10:55.241Z,3.67
2023-02-19T04:13:47.642Z,3.78
2023-02-19T04:16:27.378Z,4.55
2023-02-19T04:18:59.884Z,3.50
2023-02-19T04:21:30.445Z,3.55
2023-02-19T04:24:03.230Z,3.53
2023-02-19T04:26:34.704Z,2.92
2023-02-19T04:29:04.353Z,3.55
2023-02-19T04:31:35.766Z,3.65
2023-02-19T04:34:08.898Z,3.38
2023-02-19T04:36:35.669Z,3.60
2023-02-19T04:39:07.008Z,5.43
2023-02-19T04:41:38.789Z,5.28
2023-02-19T04:44:05.886Z,4.80
2023-02-19T04:46:36.009Z,3.63
2023-02-19T04:49:02.799Z,4.68
2023-02-19T04:51:31.012Z,3.78
2023-02-19T04:53:59.328Z,3.83
2023-02-19T04:56:26.746Z,3.80
2023-02-19T04:58:54.610Z,3.72
2023-02-19T05:01:21.486Z,4.35
2023-02-19T05:03:52.671Z,3.88
2023-02-19T05:06:19.842Z,2.95
2023-02-19T05:08:48.055Z,3.67
2023-02-19T05:11:17.932Z,5.38
2023-02-19T05:13:52.519Z,4.45
2023-02-19T05:16:20.693Z,4.45
2023-02-19T05:18:48.654Z,3.78
2023-02-19T05:21:17.794Z,3.63
2023-02-19T05:23:44.770Z,4.55
2023-02-19T05:26:18.740Z,2.90
2023-02-19T05:28:48.259Z,3.30
2023-02-19T05:31:15.378Z,4.32
2023-02-19T05:33:53.208Z,4.28
2023-02-19T05:36:21.568Z,4.18
2023-02-19T05:38:54.008Z,4.25
2023-02-19T05:41:28.330Z,4.25
2023-02-19T05:44:00.338Z,4.47
2023-02-19T05:46:30.949Z,3.60
2023-02-19T05:48:58.987Z,5.20
2023-02-19T05:51:28.577Z,4.00
2023-02-19T05:53:56.874Z,4.15
2023-02-19T05:56:26.748Z,4.47
2023-02-19T05:58:55.454Z,4.70
2023-02-19T06:01:25.604Z,4.00
2023-02-19T06:03:57.095Z,4.47
2023-02-19T06:06:27.819Z,3.90
2023-02-19T06:09:00.785Z,3.70
2023-02-19T06:11:29.903Z,4.45
2023-02-19T06:13:56.700Z,3.75
2023-02-19T06:16:24.883Z,4.90
2023-02-19T06:21:21.970Z,3.55
2023-02-19T06:23:54.885Z,4.22
2023-02-19T06:26:31.761Z,3.70
2023-02-19T06:29:00.173Z,3.80
2023-02-19T06:31:29.747Z,4.38
2023-02-19T06:33:59.164Z,3.63
2023-02-19T06:36:26.076Z,4.07
2023-02-19T06:38:52.752Z,3.40
2023-02-19T06:41:20.997Z,3.95
2023-02-19T06:43:49.413Z,3.40
2023-02-19T06:46:16.778Z,3.70
2023-02-19T06:48:45.240Z,3.88
2023-02-19T06:51:21.157Z,5.00
2023-02-19T06:53:48.556Z,3.63
2023-02-19T06:56:33.187Z,3.30
2023-02-19T06:59:11.205Z,3.78
2023-02-19T07:01:46.775Z,4.82
2023-02-19T07:04:13.901Z,3.95
2023-02-19T07:06:42.240Z,4.50
2023-02-19T07:11:39.823Z,3.63
2023-02-19T07:14:13.671Z,4.55
2023-02-19T07:16:41.448Z,3.95
2023-02-19T07:19:12.519Z,3.60
2023-02-19T07:21:42.454Z,3.92
2023-02-19T07:24:13.084Z,4.38
2023-02-19T07:26:41.549Z,4.30
2023-02-19T07:31:42.546Z,4.10
2023-02-19T07:34:10.098Z,4.93
2023-02-19T07:36:40.019Z,4.78
2023-02-19T07:39:15.939Z,5.40
2023-02-19T07:41:44.328Z,5.22
2023-02-19T07:46:45.036Z,4.82
2023-02-19T07:49:13.132Z,5.50
2023-02-19T07:51:44.102Z,7.25
2023-02-19T07:54:12.139Z,5.10
2023-02-19T07:56:43.784Z,5.47
2023-02-19T07:59:12.682Z,5.38
2023-02-19T08:02:00.000Z,6.35
2023-02-19T08:04:30.058Z,5.00
2023-02-19T08:06:57.249Z,5.57
2023-02-19T08:09:32.573Z,5.35
2023-02-19T08:12:19.400Z,5.25
2023-02-19T08:14:46.331Z,5.38
2023-02-19T08:17:13.453Z,6.82
2023-02-19T08:19:43.644Z,5.70
2023-02-19T08:22:12.845Z,4.40
2023-02-19T08:25:06.263Z,2.72
2023-02-19T08:27:34.857Z,2.17
2023-02-19T08:30:01.753Z,2.42
2023-02-19T08:32:31.929Z,2.92
2023-02-19T08:34:59.622Z,4.00
2023-02-19T08:37:28.206Z,2.97
2023-02-19T08:39:55.032Z,3.85
2023-02-19T08:42:23.660Z,3.95
2023-02-19T08:44:53.338Z,3.67
2023-02-19T08:47:20.081Z,3.45
2023-02-19T08:49:51.473Z,4.03
2023-02-19T08:52:20.165Z,3.83
2023-02-19T08:54:48.296Z,3.75
2023-02-19T08:57:16.278Z,3.67
2023-02-19T08:59:46.699Z,3.70
2023-02-19T09:02:13.578Z,3.63
2023-02-19T09:04:40.538Z,4.55
2023-02-19T09:07:09.699Z,3.83
2023-02-19T09:09:40.603Z,3.22
2023-02-19T09:12:16.398Z,3.38
2023-02-19T09:14:43.452Z,3.22
2023-02-19T09:17:11.196Z,3.88
2023-02-19T09:19:39.952Z,3.38
2023-02-19T09:22:09.321Z,3.10
2023-02-19T09:24:36.392Z,2.83
2023-02-19T09:27:05.543Z,2.95
2023-02-19T09:29:34.735Z,2.92
2023-02-19T09:32:04.212Z,2.95
2023-02-19T09:34:35.980Z,2.72
2023-02-19T09:37:02.974Z,3.50
2023-02-19T09:39:30.745Z,4.38
2023-02-19T09:42:01.308Z,3.67
2023-02-19T09:44:40.711Z,3.22
2023-02-19T09:47:15.628Z,4.13
2023-02-19T09:49:51.708Z,3.55
2023-02-19T09:52:56.453Z,3.90
2023-02-19T09:55:33.209Z,4.68
2023-02-19T09:58:03.045Z,3.97
2023-02-19T10:00:34.481Z,4.25
2023-02-19T10:03:17.487Z,4.03
2023-02-19T10:05:45.609Z,3.65
2023-02-19T10:08:20.263Z,3.88
2023-02-19T10:10:52.388Z,3.17
2023-02-19T10:13:57.077Z,3.72
2023-02-19T10:16:28.382Z,3.35
2023-02-19T10:18:56.584Z,2.40
2023-02-19T10:21:30.363Z,1.75
2023-02-19T10:24:05.962Z,1.60
2023-02-19T10:26:38.069Z,1.25
2023-02-19T10:29:07.014Z,1.77
2023-02-19T10:31:34.488Z,1.17
2023-02-19T10:34:02.425Z,0.68
2023-02-19T10:36:36.357Z,0.57
2023-02-19T10:39:29.189Z,1.25
2023-02-19T10:41:58.903Z,1.27
2023-02-19T10:44:30.767Z,0.95
2023-02-19T10:47:00.414Z,1.50
2023-02-19T10:49:39.717Z,0.90
2023-02-19T10:52:19.311Z,0.90
2023-02-19T10:54:58.438Z,1.30
2023-02-19T10:57:34.138Z,1.20
2023-02-19T11:00:19.117Z,1.42
2023-02-19T11:03:35.284Z,1.45
2023-02-19T11:06:09.414Z,1.25
2023-02-19T11:09:02.981Z,1.17
2023-02-19T11:11:53.643Z,1.20
2023-02-19T11:14:26.062Z,1.40
2023-02-19T11:17:02.159Z,1.50
2023-02-19T11:19:44.263Z,1.63
2023-02-19T11:22:40.364Z,1.17
2023-02-19T11:25:22.232Z,1.13
2023-02-19T11:27:56.337Z,1.50
2023-02-19T11:30:36.402Z,1.70
2023-02-19T11:33:24.915Z,1.13
2023-02-19T11:36:37.548Z,0.60
2023-02-19T11:39:09.996Z,1.02
2023-02-19T11:41:46.276Z,0.70
2023-02-19T11:44:26.174Z,0.98
2023-02-19T11:47:25.601Z,0.82
2023-02-19T11:50:02.539Z,1.30
2023-02-19T11:52:35.235Z,0.80
2023-02-19T11:55:46.151Z,0.63
2023-02-19T11:58:39.290Z,0.75
2023-02-19T12:01:15.617Z,0.38
2023-02-19T12:04:00.634Z,0.40
2023-02-19T12:06:54.380Z,0.60
2023-02-19T12:09:40.367Z,0.50
2023-02-19T12:12:37.408Z,0.22
2023-02-19T12:15:08.694Z,0.25
2023-02-19T12:17:59.878Z,0.30
2023-02-19T12:20:31.932Z,0.38
2023-02-19T12:23:36.660Z,0.20
2023-02-19T12:26:45.278Z,0.30
2023-02-19T12:29:54.231Z,0.40
2023-02-19T12:32:25.886Z,0.22
2023-02-19T12:35:24.767Z,0.10
2023-02-19T12:38:04.659Z,0.10
2023-02-19T12:40:51.977Z,0.20
2023-02-19T12:43:21.440Z,0.30
2023-02-19T12:46:00.633Z,0.43
2023-02-19T12:48:42.593Z,0.50
2023-02-19T12:51:27.005Z,0.52
2023-02-19T12:54:11.432Z,0.22
2023-02-19T12:56:49.100Z,0.60
2023-02-19T12:59:24.580Z,0.60
2023-02-19T13:02:23.465Z,0.47
2023-02-19T13:07:40.808Z,0.70
2023-02-19T13:10:44.819Z,0.30
2023-02-19T13:13:25.530Z,0.77
2023-02-19T13:16:09.883Z,0.30
2023-02-19T13:18:44.324Z,0.30
2023-02-19T13:21:13.857Z,0.50
2023-02-19T13:24:03.413Z,0.30
2023-02-19T13:26:42.349Z,0.35
2023-02-19T13:29:22.198Z,0.20
2023-02-19T13:32:26.588Z,0.40
2023-02-19T13:35:21.974Z,0.25
2023-02-19T13:37:50.878Z,0.30
2023-02-19T13:40:43.735Z,0.30
2023-02-19T13:43:31.113Z,0.22
2023-02-19T13:46:04.572Z,0.20
2023-02-19T13:48:44.340Z,0.40
2023-02-19T13:51:26.603Z,0.30
2023-02-19T13:53:56.169Z,0.40
2023-02-19T13:56:34.927Z,0.28
2023-02-19T13:59:25.310Z,0.25
2023-02-19T14:01:57.579Z,0.30
2023-02-19T14:04:53.513Z,0.17
2023-02-19T14:07:47.786Z,0.30
2023-02-19T14:10:47.401Z,0.38
2023-02-19T14:14:01.367Z,0.22
2023-02-19T14:16:40.098Z,0.00
2023-02-19T14:19:36.829Z,0.13
2023-02-19T14:22:42.157Z,0.10
2023-02-19T14:25:31.406Z,0.10
2023-02-19T14:28:03.404Z,0.20
2023-02-19T14:30:32.641Z,0.15
2023-02-19T14:33:10.737Z,0.10
2023-02-19T14:35:46.748Z,0.15
2023-02-19T14:38:20.201Z,0.10
2023-02-19T14:43:25.340Z,0.10
2023-02-19T14:46:07.886Z,0.10
2023-02-19T14:48:48.093Z,0.13
2023-02-19T14:51:38.666Z,0.20
2023-02-19T14:54:18.603Z,0.20
2023-02-19T14:56:51.799Z,0.10
2023-02-19T14:59:23.974Z,0.13
2023-02-19T15:02:01.996Z,0.13
2023-02-19T15:07:34.473Z,0.82
2023-02-19T15:10:05.898Z,0.10
2023-02-19T15:12:51.415Z,0.25
2023-02-19T15:15:33.811Z,0.45
2023-02-19T15:18:11.612Z,0.35
2023-02-19T15:20:39.071Z,0.45
2023-02-19T15:23:08.527Z,0.70
2023-02-19T15:25:50.073Z,0.40
2023-02-19T15:28:34.653Z,0.55
2023-02-19T15:31:06.544Z,0.35
2023-02-19T15:33:43.198Z,0.40
2023-02-19T15:36:17.169Z,0.38
2023-02-19T15:39:02.441Z,0.80
2023-02-19T15:41:35.480Z,0.32
2023-02-19T15:44:54.889Z,0.68
2023-02-19T15:47:33.617Z,0.65
2023-02-19T15:50:18.019Z,0.90
2023-02-19T15:55:41.313Z,1.33
2023-02-19T15:58:28.151Z,1.38
2023-02-19T16:01:26.439Z,1.08
2023-02-19T16:03:58.803Z,0.85
2023-02-19T16:06:28.404Z,1.00
2023-02-19T16:09:13.946Z,1.05
2023-02-19T16:11:55.946Z,0.68
2023-02-19T16:14:35.602Z,0.70
2023-02-19T16:17:12.003Z,0.57
2023-02-19T16:20:09.507Z,0.68
2023-02-19T16:22:42.356Z,0.30
2023-02-19T16:25:26.646Z,0.70
2023-02-19T16:27:59.179Z,0.30
2023-02-19T16:30:31.931Z,0.68
2023-02-19T16:33:22.468Z,0.50
2023-02-19T16:35:54.261Z,0.17
2023-02-19T16:38:24.073Z,0.22
2023-02-19T16:41:14.156Z,0.30
2023-02-19T16:43:44.660Z,0.30
2023-02-19T16:46:13.740Z,0.35
2023-02-19T16:48:41.288Z,0.15
2023-02-19T16:51:10.209Z,0.40
2023-02-19T16:53:39.504Z,0.57
2023-02-19T16:56:17.102Z,0.30
2023-02-19T16:58:44.578Z,0.10
2023-02-19T17:01:16.262Z,0.57
2023-02-19T17:03:48.622Z,0.73
2023-02-19T17:06:17.303Z,0.57
2023-02-19T17:08:47.473Z,0.55
2023-02-19T17:11:16.748Z,0.57
2023-02-19T17:13:57.021Z,0.90
2023-02-19T17:16:33.782Z,0.47
2023-02-19T17:19:03.052Z,0.60
2023-02-19T17:21:32.017Z,1.10
2023-02-19T17:23:58.801Z,1.33
2023-02-19T17:29:17.991Z,1.15
2023-02-19T17:31:45.502Z,1.45
2023-02-19T17:34:12.537Z,0.85
2023-02-19T17:36:40.917Z,1.00
2023-02-19T17:41:35.909Z,0.70
2023-02-19T17:44:09.361Z,2.53
2023-02-19T17:46:37.509Z,1.15
2023-02-19T17:49:07.670Z,1.30
2023-02-19T17:54:22.909Z,1.23
2023-02-19T17:59:26.376Z,1.20
2023-02-19T18:01:55.122Z,1.80
2023-02-19T18:07:14.486Z,1.20
2023-02-19T18:09:53.644Z,0.98
2023-02-19T18:12:21.685Z,1.70
2023-02-19T18:15:25.908Z,0.75
2023-02-19T18:18:02.942Z,0.93
2023-02-19T18:20:35.496Z,1.23
2023-02-19T18:23:07.243Z,0.85
2023-02-19T18:25:56.436Z,0.82
2023-02-19T18:28:23.389Z,1.38
2023-02-19T18:31:11.892Z,1.30
2023-02-19T18:33:41.331Z,1.30
2023-02-19T18:36:20.017Z,1.60
2023-02-19T18:38:48.423Z,1.10
2023-02-19T18:41:22.406Z,1.23
2023-02-19T18:46:50.125Z,0.80
2023-02-19T18:49:32.318Z,2.25
2023-02-19T18:52:02.297Z,1.42
2023-02-19T18:54:31.589Z,1.25
2023-02-19T18:57:07.693Z,0.85
2023-02-19T18:59:40.273Z,0.68
2023-02-19T19:04:57.277Z,1.00
2023-02-19T19:07:32.535Z,1.13
2023-02-19T19:10:05.090Z,0.88
2023-02-19T19:12:43.702Z,0.50
2023-02-19T19:15:17.942Z,0.70
2023-02-19T19:18:07.912Z,0.60
2023-02-19T19:20:38.206Z,0.55
2023-02-19T19:23:07.411Z,0.50
2023-02-19T19:25:47.830Z,1.30
2023-02-19T19:28:21.953Z,0.82
2023-02-19T19:31:04.668Z,0.40
2023-02-19T19:33:38.012Z,0.80
2023-02-19T19:36:06.221Z,0.93
2023-02-19T19:38:41.138Z,0.95
2023-02-19T19:41:11.012Z,0.60
2023-02-19T19:43:42.614Z,0.82
2023-02-19T19:46:12.372Z,0.73
2023-02-19T19:48:44.143Z,0.52
2023-02-19T19:51:15.700Z,0.30
2023-02-19T19:53:50.330Z,1.02
2023-02-19T19:56:28.834Z,0.68
2023-02-19T19:59:07.942Z,0.60
2023-02-19T20:01:58.726Z,0.70
2023-02-19T20:04:35.017Z,0.75
2023-02-19T20:07:12.155Z,0.80
2023-02-19T20:10:16.398Z,1.92
2023-02-19T20:12:45.563Z,0.98
2023-02-19T20:18:25.836Z,0.93
2023-02-19T20:20:54.247Z,0.80
2023-02-19T20:25:55.779Z,0.80
2023-02-19T20:28:25.394Z,0.80
2023-02-19T20:30:52.498Z,0.80
2023-02-19T20:33:26.837Z,0.82
2023-02-19T20:35:54.521Z,1.08
2023-02-19T20:38:24.214Z,1.13
2023-02-19T20:40:51.620Z,1.15
2023-02-19T20:43:27.289Z,1.10
2023-02-19T20:45:55.490Z,1.40
2023-02-19T20:48:27.106Z,1.27
2023-02-19T20:51:00.951Z,1.15
2023-02-19T20:53:41.146Z,1.15
2023-02-19T20:56:34.682Z,1.10
2023-02-19T20:58:59.990Z,1.30
2023-02-19T21:01:41.322Z,1.30
2023-02-19T21:04:08.381Z,1.30
2023-02-19T21:06:35.325Z,1.88
2023-02-19T21:09:03.135Z,2.40
2023-02-19T21:11:29.944Z,2.50
2023-02-19T21:13:59.245Z,2.80
2023-02-19T21:16:27.289Z,3.97
2023-02-19T21:18:54.483Z,4.55
2023-02-19T21:21:26.190Z,3.67
2023-02-19T21:23:55.297Z,4.75
2023-02-19T21:26:23.736Z,5.20
2023-02-19T21:28:51.888Z,5.38
2023-02-19T21:31:19.523Z,5.70
2023-02-19T21:33:46.610Z,5.78
2023-02-19T21:36:13.508Z,5.75
2023-02-19T21:38:41.665Z,6.65
2023-02-19T21:41:08.729Z,7.45
2023-02-19T21:43:37.774Z,6.85
2023-02-19T21:46:04.716Z,6.70
2023-02-19T21:48:33.044Z,5.32
2023-02-19T21:50:59.862Z,6.32
2023-02-19T21:53:27.107Z,5.60
2023-02-19T21:55:58.736Z,6.18
2023-02-19T21:58:37.465Z,6.07
2023-02-19T22:01:04.942Z,7.03
2023-02-19T22:03:31.809Z,6.18
2023-02-19T22:06:02.207Z,6.80
2023-02-19T22:08:30.315Z,6.85
2023-02-19T22:10:57.399Z,7.38
2023-02-19T22:13:24.239Z,6.28
2023-02-19T22:15:51.129Z,6.55
2023-02-19T22:18:17.962Z,4.90
2023-02-19T22:20:46.419Z,5.82
2023-02-19T22:23:13.396Z,5.80
2023-02-19T22:25:41.437Z,5.78
2023-02-19T22:28:08.526Z,6.30
2023-02-19T22:30:35.472Z,5.45
2023-02-19T22:33:04.205Z,4.88
2023-02-19T22:35:31.153Z,4.97
2023-02-19T22:37:59.294Z,5.22
2023-02-19T22:40:26.194Z,4.88
2023-02-19T22:42:53.165Z,5.03
2023-02-19T22:45:20.389Z,4.82
2023-02-19T22:47:47.395Z,4.57
2023-02-19T22:50:19.900Z,3.67
2023-02-19T22:52:46.849Z,3.97
2023-02-19T22:55:13.613Z,4.20
2023-02-19T22:57:40.529Z,3.55
2023-02-19T23:00:08.658Z,3.20
2023-02-19T23:02:36.574Z,3.45
2023-02-19T23:05:03.466Z,4.80
2023-02-19T23:07:30.454Z,5.03
2023-02-19T23:09:57.385Z,4.07
2023-02-19T23:12:24.267Z,3.53
2023-02-19T23:14:51.472Z,4.35
2023-02-19T23:17:18.227Z,3.60
2023-02-19T23:19:46.296Z,4.57
2023-02-19T23:22:13.727Z,3.97
2023-02-19T23:24:41.343Z,4.57
2023-02-19T23:27:08.145Z,4.20
2023-02-19T23:29:34.989Z,4.43
2023-02-19T23:32:02.034Z,3.88
2023-02-19T23:34:28.998Z,3.75
2023-02-19T23:36:59.653Z,4.82
2023-02-19T23:39:27.924Z,4.40
2023-02-19T23:41:57.408Z,4.28
2023-02-19T23:44:25.273Z,5.18
2023-02-19T23:46:53.845Z,4.15
2023-02-19T23:49:22.676Z,4.90
2023-02-19T23:51:51.968Z,4.78
2023-02-19T23:54:19.587Z,5.28
2023-02-19T23:56:46.662Z,6.07
2023-02-19T23:59:13.995Z,5.25
